sensor_id;sensor_type;location;lat;lon;timestamp;P1;durP1;ratioP1;P2;durP2;ratioP2
23782;SDS011;12071;50.850;4.446;2023-03-14T00:00:05;7.55;;;1.02;;
23782;SDS011;12071;50.850;4.446;2023-03-14T00:02:36;5.50;;;1.10;;
23782;SDS011;12071;50.850;4.446;2023-03-14T00:05:02;5.40;;;1.02;;
23782;SDS011;12071;50.850;4.446;2023-03-14T00:07:31;6.00;;;1.17;;
23782;SDS011;12071;50.850;4.446;2023-03-14T00:10:00;7.25;;;1.05;;
23782;SDS011;12071;50.850;4.446;2023-03-14T00:12:27;8.90;;;1.40;;
23782;SDS011;12071;50.850;4.446;2023-03-14T00:14:52;6.10;;;1.40;;
23782;SDS011;12071;50.850;4.446;2023-03-14T00:17:18;9.40;;;1.40;;
23782;SDS011;12071;50.850;4.446;2023-03-14T00:19:43;4.22;;;1.10;;
23782;SDS011;12071;50.850;4.446;2023-03-14T00:22:09;7.95;;;1.30;;
23782;SDS011;12071;50.850;4.446;2023-03-14T00:24:35;9.63;;;1.40;;
23782;SDS011;12071;50.850;4.446;2023-03-14T00:27:00;9.05;;;1.30;;
23782;SDS011;12071;50.850;4.446;2023-03-14T00:29:26;7.55;;;1.35;;
23782;SDS011;12071;50.850;4.446;2023-03-14T00:31:51;8.05;;;0.90;;
23782;SDS011;12071;50.850;4.446;2023-03-14T00:34:18;8.60;;;1.33;;
23782;SDS011;12071;50.850;4.446;2023-03-14T00:36:44;8.88;;;1.77;;
23782;SDS011;12071;50.850;4.446;2023-03-14T00:39:10;8.07;;;1.35;;
23782;SDS011;12071;50.850;4.446;2023-03-14T00:41:35;9.60;;;1.80;;
23782;SDS011;12071;50.850;4.446;2023-03-14T00:44:01;8.00;;;1.55;;
23782;SDS011;12071;50.850;4.446;2023-03-14T00:46:27;8.25;;;1.23;;
23782;SDS011;12071;50.850;4.446;2023-03-14T00:48:52;9.05;;;1.83;;
23782;SDS011;12071;50.850;4.446;2023-03-14T00:51:18;9.40;;;1.55;;
23782;SDS011;12071;50.850;4.446;2023-03-14T00:53:43;10.05;;;1.65;;
23782;SDS011;12071;50.850;4.446;2023-03-14T00:56:10;9.57;;;1.75;;
23782;SDS011;12071;50.850;4.446;2023-03-14T00:58:37;8.68;;;1.77;;
23782;SDS011;12071;50.850;4.446;2023-03-14T01:01:07;11.52;;;1.73;;
23782;SDS011;12071;50.850;4.446;2023-03-14T01:03:35;8.40;;;1.48;;
23782;SDS011;12071;50.850;4.446;2023-03-14T01:06:08;12.70;;;1.58;;
23782;SDS011;12071;50.850;4.446;2023-03-14T01:08:38;8.68;;;1.48;;
23782;SDS011;12071;50.850;4.446;2023-03-14T01:11:11;15.75;;;1.83;;
23782;SDS011;12071;50.850;4.446;2023-03-14T01:13:39;8.30;;;1.65;;
23782;SDS011;12071;50.850;4.446;2023-03-14T01:16:06;11.80;;;1.63;;
23782;SDS011;12071;50.850;4.446;2023-03-14T01:18:33;8.23;;;1.60;;
23782;SDS011;12071;50.850;4.446;2023-03-14T01:21:00;13.30;;;2.38;;
23782;SDS011;12071;50.850;4.446;2023-03-14T01:23:27;14.73;;;1.95;;
23782;SDS011;12071;50.850;4.446;2023-03-14T01:25:53;9.75;;;1.85;;
23782;SDS011;12071;50.850;4.446;2023-03-14T01:28:19;12.63;;;1.90;;
23782;SDS011;12071;50.850;4.446;2023-03-14T01:30:44;9.32;;;1.35;;
23782;SDS011;12071;50.850;4.446;2023-03-14T01:33:10;14.45;;;1.73;;
23782;SDS011;12071;50.850;4.446;2023-03-14T01:35:37;9.38;;;1.52;;
23782;SDS011;12071;50.850;4.446;2023-03-14T01:38:03;10.18;;;1.55;;
23782;SDS011;12071;50.850;4.446;2023-03-14T01:40:28;9.77;;;1.52;;
23782;SDS011;12071;50.850;4.446;2023-03-14T01:42:55;11.82;;;1.67;;
23782;SDS011;12071;50.850;4.446;2023-03-14T01:48:18;8.90;;;1.20;;
23782;SDS011;12071;50.850;4.446;2023-03-14T01:50:45;11.02;;;1.55;;
23782;SDS011;12071;50.850;4.446;2023-03-14T01:53:10;6.28;;;1.40;;
23782;SDS011;12071;50.850;4.446;2023-03-14T01:55:36;8.80;;;0.98;;
23782;SDS011;12071;50.850;4.446;2023-03-14T01:58:03;6.65;;;1.10;;
23782;SDS011;12071;50.850;4.446;2023-03-14T02:00:30;4.30;;;0.85;;
23782;SDS011;12071;50.850;4.446;2023-03-14T02:03:00;6.47;;;1.15;;
23782;SDS011;12071;50.850;4.446;2023-03-14T02:05:31;3.17;;;0.65;;
23782;SDS011;12071;50.850;4.446;2023-03-14T02:08:00;5.25;;;0.73;;
23782;SDS011;12071;50.850;4.446;2023-03-14T02:10:29;5.93;;;0.70;;
23782;SDS011;12071;50.850;4.446;2023-03-14T02:12:58;1.95;;;0.52;;
23782;SDS011;12071;50.850;4.446;2023-03-14T02:15:27;6.78;;;1.25;;
23782;SDS011;12071;50.850;4.446;2023-03-14T02:17:53;3.78;;;0.70;;
23782;SDS011;12071;50.850;4.446;2023-03-14T02:20:38;5.25;;;1.15;;
23782;SDS011;12071;50.850;4.446;2023-03-14T02:23:12;4.43;;;0.88;;
23782;SDS011;12071;50.850;4.446;2023-03-14T02:25:48;8.60;;;1.10;;
23782;SDS011;12071;50.850;4.446;2023-03-14T02:28:20;4.28;;;0.93;;
23782;SDS011;12071;50.850;4.446;2023-03-14T02:30:46;6.30;;;0.70;;
23782;SDS011;12071;50.850;4.446;2023-03-14T02:33:13;3.53;;;0.70;;
23782;SDS011;12071;50.850;4.446;2023-03-14T02:35:51;3.80;;;0.63;;
23782;SDS011;12071;50.850;4.446;2023-03-14T02:38:31;5.85;;;0.88;;
23782;SDS011;12071;50.850;4.446;2023-03-14T02:41:01;5.10;;;0.80;;
23782;SDS011;12071;50.850;4.446;2023-03-14T02:43:27;6.35;;;0.90;;
23782;SDS011;12071;50.850;4.446;2023-03-14T02:45:53;5.72;;;1.30;;
23782;SDS011;12071;50.850;4.446;2023-03-14T02:48:20;5.13;;;1.17;;
23782;SDS011;12071;50.850;4.446;2023-03-14T02:50:51;6.65;;;1.95;;
23782;SDS011;12071;50.850;4.446;2023-03-14T02:53:21;7.65;;;1.85;;
23782;SDS011;12071;50.850;4.446;2023-03-14T02:55:50;11.95;;;1.83;;
23782;SDS011;12071;50.850;4.446;2023-03-14T02:58:16;6.57;;;2.20;;
23782;SDS011;12071;50.850;4.446;2023-03-14T03:00:42;6.82;;;2.30;;
23782;SDS011;12071;50.850;4.446;2023-03-14T03:03:08;11.38;;;2.45;;
23782;SDS011;12071;50.850;4.446;2023-03-14T03:05:34;10.68;;;2.33;;
23782;SDS011;12071;50.850;4.446;2023-03-14T03:08:00;12.07;;;2.78;;
23782;SDS011;12071;50.850;4.446;2023-03-14T03:10:25;9.40;;;2.92;;
23782;SDS011;12071;50.850;4.446;2023-03-14T03:12:51;10.27;;;2.53;;
23782;SDS011;12071;50.850;4.446;2023-03-14T03:15:17;8.75;;;2.10;;
23782;SDS011;12071;50.850;4.446;2023-03-14T03:17:43;6.38;;;2.25;;
23782;SDS011;12071;50.850;4.446;2023-03-14T03:20:09;7.43;;;2.05;;
23782;SDS011;12071;50.850;4.446;2023-03-14T03:22:38;9.15;;;2.47;;
23782;SDS011;12071;50.850;4.446;2023-03-14T03:25:04;11.52;;;2.25;;
23782;SDS011;12071;50.850;4.446;2023-03-14T03:27:32;11.90;;;2.95;;
23782;SDS011;12071;50.850;4.446;2023-03-14T03:30:02;13.00;;;2.88;;
23782;SDS011;12071;50.850;4.446;2023-03-14T03:32:30;9.52;;;2.53;;
23782;SDS011;12071;50.850;4.446;2023-03-14T03:34:56;12.75;;;3.38;;
23782;SDS011;12071;50.850;4.446;2023-03-14T03:37:21;12.65;;;3.20;;
23782;SDS011;12071;50.850;4.446;2023-03-14T03:39:47;15.00;;;3.00;;
23782;SDS011;12071;50.850;4.446;2023-03-14T03:42:15;11.88;;;2.83;;
23782;SDS011;12071;50.850;4.446;2023-03-14T03:44:41;12.23;;;2.92;;
23782;SDS011;12071;50.850;4.446;2023-03-14T03:47:06;16.02;;;2.72;;
23782;SDS011;12071;50.850;4.446;2023-03-14T03:49:32;12.10;;;3.00;;
23782;SDS011;12071;50.850;4.446;2023-03-14T03:51:58;9.65;;;2.53;;
23782;SDS011;12071;50.850;4.446;2023-03-14T03:54:24;11.40;;;2.70;;
23782;SDS011;12071;50.850;4.446;2023-03-14T03:56:50;11.68;;;3.15;;
23782;SDS011;12071;50.850;4.446;2023-03-14T03:59:16;9.30;;;2.45;;
23782;SDS011;12071;50.850;4.446;2023-03-14T04:01:41;11.85;;;3.45;;
23782;SDS011;12071;50.850;4.446;2023-03-14T04:04:07;11.63;;;2.67;;
23782;SDS011;12071;50.850;4.446;2023-03-14T04:06:33;12.95;;;3.10;;
23782;SDS011;12071;50.850;4.446;2023-03-14T04:08:59;9.02;;;2.80;;
23782;SDS011;12071;50.850;4.446;2023-03-14T04:11:24;8.02;;;3.63;;
23782;SDS011;12071;50.850;4.446;2023-03-14T04:13:50;12.05;;;3.40;;
23782;SDS011;12071;50.850;4.446;2023-03-14T04:16:22;13.10;;;4.75;;
23782;SDS011;12071;50.850;4.446;2023-03-14T04:18:50;12.07;;;3.97;;
23782;SDS011;12071;50.850;4.446;2023-03-14T04:21:16;10.57;;;4.57;;
23782;SDS011;12071;50.850;4.446;2023-03-14T04:23:41;12.07;;;4.93;;
23782;SDS011;12071;50.850;4.446;2023-03-14T04:26:07;13.13;;;5.22;;
23782;SDS011;12071;50.850;4.446;2023-03-14T04:28:33;9.80;;;4.38;;
23782;SDS011;12071;50.850;4.446;2023-03-14T04:31:06;12.50;;;5.35;;
23782;SDS011;12071;50.850;4.446;2023-03-14T04:33:35;11.75;;;4.90;;
23782;SDS011;12071;50.850;4.446;2023-03-14T04:36:02;13.35;;;5.03;;
23782;SDS011;12071;50.850;4.446;2023-03-14T04:38:28;11.93;;;5.55;;
23782;SDS011;12071;50.850;4.446;2023-03-14T04:40:54;13.73;;;5.28;;
23782;SDS011;12071;50.850;4.446;2023-03-14T04:43:20;14.55;;;5.47;;
23782;SDS011;12071;50.850;4.446;2023-03-14T04:45:45;9.88;;;4.72;;
23782;SDS011;12071;50.850;4.446;2023-03-14T04:48:11;8.75;;;5.15;;
23782;SDS011;12071;50.850;4.446;2023-03-14T04:50:38;11.52;;;5.25;;
23782;SDS011;12071;50.850;4.446;2023-03-14T04:53:04;8.88;;;4.60;;
23782;SDS011;12071;50.850;4.446;2023-03-14T04:55:30;11.52;;;5.13;;
23782;SDS011;12071;50.850;4.446;2023-03-14T04:57:57;9.00;;;4.65;;
23782;SDS011;12071;50.850;4.446;2023-03-14T05:00:23;9.52;;;5.00;;
23782;SDS011;12071;50.850;4.446;2023-03-14T05:02:49;12.10;;;4.40;;
23782;SDS011;12071;50.850;4.446;2023-03-14T05:05:15;10.15;;;4.80;;
23782;SDS011;12071;50.850;4.446;2023-03-14T05:07:40;9.93;;;4.43;;
23782;SDS011;12071;50.850;4.446;2023-03-14T05:10:06;8.52;;;4.30;;
23782;SDS011;12071;50.850;4.446;2023-03-14T05:12:32;11.05;;;4.65;;
23782;SDS011;12071;50.850;4.446;2023-03-14T05:14:57;10.60;;;4.30;;
23782;SDS011;12071;50.850;4.446;2023-03-14T05:17:23;12.52;;;4.75;;
23782;SDS011;12071;50.850;4.446;2023-03-14T05:19:48;8.30;;;5.10;;
23782;SDS011;12071;50.850;4.446;2023-03-14T05:22:14;8.85;;;3.95;;
23782;SDS011;12071;50.850;4.446;2023-03-14T05:24:40;7.10;;;3.50;;
23782;SDS011;12071;50.850;4.446;2023-03-14T05:27:05;6.88;;;3.97;;
23782;SDS011;12071;50.850;4.446;2023-03-14T05:29:31;8.70;;;3.30;;
23782;SDS011;12071;50.850;4.446;2023-03-14T05:31:56;4.88;;;2.22;;
23782;SDS011;12071;50.850;4.446;2023-03-14T05:34:22;4.05;;;2.53;;
23782;SDS011;12071;50.850;4.446;2023-03-14T05:36:48;5.10;;;3.17;;
23782;SDS011;12071;50.850;4.446;2023-03-14T05:39:13;7.03;;;2.70;;
23782;SDS011;12071;50.850;4.446;2023-03-14T05:41:39;5.03;;;2.75;;
23782;SDS011;12071;50.850;4.446;2023-03-14T05:44:04;4.43;;;2.90;;
23782;SDS011;12071;50.850;4.446;2023-03-14T05:46:30;4.15;;;2.55;;
23782;SDS011;12071;50.850;4.446;2023-03-14T05:48:56;6.15;;;2.80;;
23782;SDS011;12071;50.850;4.446;2023-03-14T05:51:22;5.80;;;3.05;;
23782;SDS011;12071;50.850;4.446;2023-03-14T05:53:48;6.35;;;3.33;;
23782;SDS011;12071;50.850;4.446;2023-03-14T05:56:14;6.15;;;2.65;;
23782;SDS011;12071;50.850;4.446;2023-03-14T05:58:39;4.65;;;3.13;;
23782;SDS011;12071;50.850;4.446;2023-03-14T06:01:05;4.63;;;3.17;;
23782;SDS011;12071;50.850;4.446;2023-03-14T06:03:32;5.10;;;3.60;;
23782;SDS011;12071;50.850;4.446;2023-03-14T06:05:57;5.50;;;3.40;;
23782;SDS011;12071;50.850;4.446;2023-03-14T06:08:23;8.80;;;3.00;;
23782;SDS011;12071;50.850;4.446;2023-03-14T06:10:49;5.63;;;3.22;;
23782;SDS011;12071;50.850;4.446;2023-03-14T06:13:16;5.72;;;3.17;;
23782;SDS011;12071;50.850;4.446;2023-03-14T06:15:42;7.15;;;3.65;;
23782;SDS011;12071;50.850;4.446;2023-03-14T06:18:08;7.93;;;3.72;;
23782;SDS011;12071;50.850;4.446;2023-03-14T06:20:35;5.93;;;3.40;;
23782;SDS011;12071;50.850;4.446;2023-03-14T06:23:03;7.10;;;3.33;;
23782;SDS011;12071;50.850;4.446;2023-03-14T06:25:30;6.25;;;3.63;;
23782;SDS011;12071;50.850;4.446;2023-03-14T06:27:56;5.80;;;3.78;;
23782;SDS011;12071;50.850;4.446;2023-03-14T06:30:22;5.93;;;3.55;;
23782;SDS011;12071;50.850;4.446;2023-03-14T06:32:47;5.40;;;3.67;;
23782;SDS011;12071;50.850;4.446;2023-03-14T06:35:13;6.45;;;3.15;;
23782;SDS011;12071;50.850;4.446;2023-03-14T06:37:39;5.63;;;3.30;;
23782;SDS011;12071;50.850;4.446;2023-03-14T06:40:04;6.55;;;3.38;;
23782;SDS011;12071;50.850;4.446;2023-03-14T06:42:32;4.10;;;2.63;;
23782;SDS011;12071;50.850;4.446;2023-03-14T06:44:58;4.20;;;2.95;;
23782;SDS011;12071;50.850;4.446;2023-03-14T06:47:23;4.10;;;2.47;;
23782;SDS011;12071;50.850;4.446;2023-03-14T06:49:49;3.95;;;2.67;;
23782;SDS011;12071;50.850;4.446;2023-03-14T06:52:14;4.65;;;2.50;;
23782;SDS011;12071;50.850;4.446;2023-03-14T06:54:40;5.13;;;3.20;;
23782;SDS011;12071;50.850;4.446;2023-03-14T06:57:06;3.88;;;3.28;;
23782;SDS011;12071;50.850;4.446;2023-03-14T06:59:31;10.07;;;4.30;;
23782;SDS011;12071;50.850;4.446;2023-03-14T07:01:57;7.90;;;4.10;;
23782;SDS011;12071;50.850;4.446;2023-03-14T07:04:22;5.93;;;2.88;;
23782;SDS011;12071;50.850;4.446;2023-03-14T07:06:48;6.05;;;2.72;;
23782;SDS011;12071;50.850;4.446;2023-03-14T07:09:14;3.35;;;2.13;;
23782;SDS011;12071;50.850;4.446;2023-03-14T07:11:41;4.97;;;2.58;;
23782;SDS011;12071;50.850;4.446;2023-03-14T07:14:07;4.38;;;3.67;;
23782;SDS011;12071;50.850;4.446;2023-03-14T07:16:33;6.75;;;3.88;;
23782;SDS011;12071;50.850;4.446;2023-03-14T07:18:59;8.25;;;4.15;;
23782;SDS011;12071;50.850;4.446;2023-03-14T07:21:26;7.32;;;3.97;;
23782;SDS011;12071;50.850;4.446;2023-03-14T07:23:51;3.05;;;1.98;;
23782;SDS011;12071;50.850;4.446;2023-03-14T07:26:17;4.15;;;2.00;;
23782;SDS011;12071;50.850;4.446;2023-03-14T07:28:43;5.00;;;2.00;;
23782;SDS011;12071;50.850;4.446;2023-03-14T07:31:09;4.45;;;1.95;;
23782;SDS011;12071;50.850;4.446;2023-03-14T07:33:35;3.67;;;2.00;;
23782;SDS011;12071;50.850;4.446;2023-03-14T07:36:00;3.55;;;2.20;;
23782;SDS011;12071;50.850;4.446;2023-03-14T07:38:26;4.25;;;2.15;;
23782;SDS011;12071;50.850;4.446;2023-03-14T07:41:01;5.28;;;2.00;;
23782;SDS011;12071;50.850;4.446;2023-03-14T07:43:31;5.38;;;2.30;;
23782;SDS011;12071;50.850;4.446;2023-03-14T07:45:57;5.22;;;1.88;;
23782;SDS011;12071;50.850;4.446;2023-03-14T07:48:22;3.55;;;2.00;;
23782;SDS011;12071;50.850;4.446;2023-03-14T07:50:50;7.38;;;2.20;;
23782;SDS011;12071;50.850;4.446;2023-03-14T07:53:17;5.55;;;2.72;;
23782;SDS011;12071;50.850;4.446;2023-03-14T07:55:43;3.83;;;2.55;;
23782;SDS011;12071;50.850;4.446;2023-03-14T07:58:09;7.10;;;2.83;;
23782;SDS011;12071;50.850;4.446;2023-03-14T08:00:35;5.72;;;3.05;;
23782;SDS011;12071;50.850;4.446;2023-03-14T08:03:00;5.13;;;3.28;;
23782;SDS011;12071;50.850;4.446;2023-03-14T08:05:26;7.95;;;4.80;;
23782;SDS011;12071;50.850;4.446;2023-03-14T08:07:52;7.63;;;4.63;;
23782;SDS011;12071;50.850;4.446;2023-03-14T08:10:17;7.75;;;4.40;;
23782;SDS011;12071;50.850;4.446;2023-03-14T08:12:47;10.43;;;4.50;;
23782;SDS011;12071;50.850;4.446;2023-03-14T08:15:16;7.70;;;3.80;;
23782;SDS011;12071;50.850;4.446;2023-03-14T08:17:42;9.77;;;4.55;;
23782;SDS011;12071;50.850;4.446;2023-03-14T08:20:07;10.45;;;4.30;;
23782;SDS011;12071;50.850;4.446;2023-03-14T08:22:36;6.55;;;3.90;;
23782;SDS011;12071;50.850;4.446;2023-03-14T08:25:02;7.93;;;3.65;;
23782;SDS011;12071;50.850;4.446;2023-03-14T08:27:28;8.18;;;4.13;;
23782;SDS011;12071;50.850;4.446;2023-03-14T08:29:53;8.88;;;4.70;;
23782;SDS011;12071;50.850;4.446;2023-03-14T08:32:19;6.18;;;3.58;;
23782;SDS011;12071;50.850;4.446;2023-03-14T08:34:45;7.25;;;3.38;;
23782;SDS011;12071;50.850;4.446;2023-03-14T08:37:11;8.00;;;3.70;;
23782;SDS011;12071;50.850;4.446;2023-03-14T08:39:36;7.97;;;3.08;;
23782;SDS011;12071;50.850;4.446;2023-03-14T08:42:02;6.60;;;2.65;;
23782;SDS011;12071;50.850;4.446;2023-03-14T08:44:28;4.20;;;2.63;;
23782;SDS011;12071;50.850;4.446;2023-03-14T08:46:53;6.00;;;2.67;;
23782;SDS011;12071;50.850;4.446;2023-03-14T08:49:19;6.57;;;2.33;;
23782;SDS011;12071;50.850;4.446;2023-03-14T08:51:45;4.50;;;2.40;;
23782;SDS011;12071;50.850;4.446;2023-03-14T08:54:10;3.10;;;2.75;;
23782;SDS011;12071;50.850;4.446;2023-03-14T08:56:36;6.28;;;3.15;;
23782;SDS011;12071;50.850;4.446;2023-03-14T08:59:05;4.80;;;3.00;;
23782;SDS011;12071;50.850;4.446;2023-03-14T09:01:30;5.45;;;3.00;;
23782;SDS011;12071;50.850;4.446;2023-03-14T09:03:56;8.57;;;3.30;;
23782;SDS011;12071;50.850;4.446;2023-03-14T09:06:22;5.80;;;3.30;;
23782;SDS011;12071;50.850;4.446;2023-03-14T09:08:47;5.20;;;3.60;;
23782;SDS011;12071;50.850;4.446;2023-03-14T09:11:13;9.77;;;3.97;;
23782;SDS011;12071;50.850;4.446;2023-03-14T09:13:39;9.00;;;4.10;;
23782;SDS011;12071;50.850;4.446;2023-03-14T09:16:05;6.15;;;3.65;;
23782;SDS011;12071;50.850;4.446;2023-03-14T09:18:32;7.57;;;3.83;;
23782;SDS011;12071;50.850;4.446;2023-03-14T09:20:57;9.07;;;4.40;;
23782;SDS011;12071;50.850;4.446;2023-03-14T09:23:23;10.02;;;3.70;;
23782;SDS011;12071;50.850;4.446;2023-03-14T09:25:48;7.88;;;3.75;;
23782;SDS011;12071;50.850;4.446;2023-03-14T09:28:14;9.52;;;3.90;;
23782;SDS011;12071;50.850;4.446;2023-03-14T09:30:40;13.40;;;3.60;;
23782;SDS011;12071;50.850;4.446;2023-03-14T09:33:05;9.30;;;3.40;;
23782;SDS011;12071;50.850;4.446;2023-03-14T09:35:33;9.27;;;3.35;;
23782;SDS011;12071;50.850;4.446;2023-03-14T09:37:59;14.32;;;2.78;;
23782;SDS011;12071;50.850;4.446;2023-03-14T09:40:24;13.27;;;4.40;;
23782;SDS011;12071;50.850;4.446;2023-03-14T09:42:58;13.65;;;3.25;;
23782;SDS011;12071;50.850;4.446;2023-03-14T09:45:28;8.25;;;3.25;;
23782;SDS011;12071;50.850;4.446;2023-03-14T09:47:58;11.70;;;2.90;;
23782;SDS011;12071;50.850;4.446;2023-03-14T09:50:25;11.85;;;3.67;;
23782;SDS011;12071;50.850;4.446;2023-03-14T09:55:24;9.95;;;3.30;;
23782;SDS011;12071;50.850;4.446;2023-03-14T09:57:50;12.52;;;3.60;;
23782;SDS011;12071;50.850;4.446;2023-03-14T10:00:22;7.95;;;2.88;;
23782;SDS011;12071;50.850;4.446;2023-03-14T10:05:39;12.10;;;3.25;;
23782;SDS011;12071;50.850;4.446;2023-03-14T10:08:06;8.02;;;2.63;;
23782;SDS011;12071;50.850;4.446;2023-03-14T10:10:37;11.23;;;3.10;;
23782;SDS011;12071;50.850;4.446;2023-03-14T10:15:48;9.32;;;2.83;;
23782;SDS011;12071;50.850;4.446;2023-03-14T10:18:16;8.38;;;3.33;;
23782;SDS011;12071;50.850;4.446;2023-03-14T10:20:43;7.70;;;2.15;;
23782;SDS011;12071;50.850;4.446;2023-03-14T10:25:38;10.85;;;2.90;;
23782;SDS011;12071;50.850;4.446;2023-03-14T10:28:05;9.45;;;2.53;;
23782;SDS011;12071;50.850;4.446;2023-03-14T10:30:55;10.80;;;2.63;;
23782;SDS011;12071;50.850;4.446;2023-03-14T10:36:34;10.50;;;2.00;;
23782;SDS011;12071;50.850;4.446;2023-03-14T10:38:47;8.13;;;2.08;;
23782;SDS011;12071;50.850;4.446;2023-03-14T10:41:23;5.50;;;1.90;;
23782;SDS011;12071;50.850;4.446;2023-03-14T10:43:51;11.35;;;2.20;;
23782;SDS011;12071;50.850;4.446;2023-03-14T10:46:21;10.13;;;2.20;;
23782;SDS011;12071;50.850;4.446;2023-03-14T10:48:49;6.53;;;1.88;;
23782;SDS011;12071;50.850;4.446;2023-03-14T10:53:43;7.03;;;1.65;;
23782;SDS011;12071;50.850;4.446;2023-03-14T10:56:11;4.75;;;1.80;;
23782;SDS011;12071;50.850;4.446;2023-03-14T10:58:44;8.47;;;2.10;;
23782;SDS011;12071;50.850;4.446;2023-03-14T11:04:13;11.38;;;2.00;;
23782;SDS011;12071;50.850;4.446;2023-03-14T11:15:01;3.35;;;1.30;;
23782;SDS011;12071;50.850;4.446;2023-03-14T11:17:38;5.30;;;1.88;;
23782;SDS011;12071;50.850;4.446;2023-03-14T11:20:26;4.57;;;1.45;;
23782;SDS011;12071;50.850;4.446;2023-03-14T11:25:47;4.93;;;1.60;;
23782;SDS011;12071;50.850;4.446;2023-03-14T11:28:40;1.67;;;0.85;;
23782;SDS011;12071;50.850;4.446;2023-03-14T11:31:20;3.40;;;0.82;;
23782;SDS011;12071;50.850;4.446;2023-03-14T11:39:35;6.32;;;0.88;;
23782;SDS011;12071;50.850;4.446;2023-03-14T11:42:04;0.85;;;0.40;;
23782;SDS011;12071;50.850;4.446;2023-03-14T11:44:39;2.63;;;0.60;;
23782;SDS011;12071;50.850;4.446;2023-03-14T11:47:12;2.70;;;0.50;;
23782;SDS011;12071;50.850;4.446;2023-03-14T11:52:16;2.80;;;0.40;;
23782;SDS011;12071;50.850;4.446;2023-03-14T11:55:02;1.38;;;0.47;;
23782;SDS011;12071;50.850;4.446;2023-03-14T11:57:32;1.77;;;0.60;;
23782;SDS011;12071;50.850;4.446;2023-03-14T12:05:40;1.15;;;0.55;;
23782;SDS011;12071;50.850;4.446;2023-03-14T12:10:46;3.83;;;1.13;;
23782;SDS011;12071;50.850;4.446;2023-03-14T12:13:16;2.55;;;1.23;;
23782;SDS011;12071;50.850;4.446;2023-03-14T12:18:26;4.53;;;1.38;;
23782;SDS011;12071;50.850;4.446;2023-03-14T12:20:55;2.85;;;1.63;;
23782;SDS011;12071;50.850;4.446;2023-03-14T12:23:42;2.45;;;1.20;;
23782;SDS011;12071;50.850;4.446;2023-03-14T12:26:22;2.13;;;1.65;;
23782;SDS011;12071;50.850;4.446;2023-03-14T12:39:25;2.92;;;1.70;;
23782;SDS011;12071;50.850;4.446;2023-03-14T12:42:37;6.00;;;1.45;;
23782;SDS011;12071;50.850;4.446;2023-03-14T12:47:51;3.97;;;1.60;;
23782;SDS011;12071;50.850;4.446;2023-03-14T12:50:29;4.10;;;1.65;;
23782;SDS011;12071;50.850;4.446;2023-03-14T12:55:28;3.38;;;1.73;;
23782;SDS011;12071;50.850;4.446;2023-03-14T12:58:20;3.80;;;1.63;;
23782;SDS011;12071;50.850;4.446;2023-03-14T13:00:51;3.67;;;1.65;;
23782;SDS011;12071;50.850;4.446;2023-03-14T13:03:22;2.40;;;1.65;;
23782;SDS011;12071;50.850;4.446;2023-03-14T13:05:56;3.10;;;1.77;;
23782;SDS011;12071;50.850;4.446;2023-03-14T13:11:01;4.57;;;1.85;;
23782;SDS011;12071;50.850;4.446;2023-03-14T13:13:30;4.70;;;1.88;;
23782;SDS011;12071;50.850;4.446;2023-03-14T13:16:00;4.45;;;2.13;;
23782;SDS011;12071;50.850;4.446;2023-03-14T13:18:34;2.63;;;1.90;;
23782;SDS011;12071;50.850;4.446;2023-03-14T13:21:33;2.72;;;2.15;;
23782;SDS011;12071;50.850;4.446;2023-03-14T13:24:02;4.00;;;2.45;;
23782;SDS011;12071;50.850;4.446;2023-03-14T13:27:02;3.25;;;2.10;;
23782;SDS011;12071;50.850;4.446;2023-03-14T13:29:25;5.85;;;2.63;;
23782;SDS011;12071;50.850;4.446;2023-03-14T13:32:31;5.50;;;3.00;;
23782;SDS011;12071;50.850;4.446;2023-03-14T13:34:59;5.30;;;2.25;;
23782;SDS011;12071;50.850;4.446;2023-03-14T13:37:25;11.30;;;2.10;;
23782;SDS011;12071;50.850;4.446;2023-03-14T13:39:52;8.80;;;2.13;;
23782;SDS011;12071;50.850;4.446;2023-03-14T13:42:20;14.65;;;2.75;;
23782;SDS011;12071;50.850;4.446;2023-03-14T13:44:49;8.55;;;2.20;;
23782;SDS011;12071;50.850;4.446;2023-03-14T13:47:18;14.88;;;2.67;;
23782;SDS011;12071;50.850;4.446;2023-03-14T13:49:46;18.38;;;3.30;;
23782;SDS011;12071;50.850;4.446;2023-03-14T13:52:23;13.73;;;3.08;;
23782;SDS011;12071;50.850;4.446;2023-03-14T13:54:54;17.83;;;3.03;;
23782;SDS011;12071;50.850;4.446;2023-03-14T13:57:20;17.50;;;3.33;;
23782;SDS011;12071;50.850;4.446;2023-03-14T13:59:57;15.95;;;2.95;;
23782;SDS011;12071;50.850;4.446;2023-03-14T14:02:25;21.38;;;3.25;;
23782;SDS011;12071;50.850;4.446;2023-03-14T14:04:52;20.35;;;2.92;;
23782;SDS011;12071;50.850;4.446;2023-03-14T14:07:17;13.80;;;3.30;;
23782;SDS011;12071;50.850;4.446;2023-03-14T14:09:44;19.70;;;3.10;;
23782;SDS011;12071;50.850;4.446;2023-03-14T14:15:02;21.92;;;3.08;;
23782;SDS011;12071;50.850;4.446;2023-03-14T14:17:41;16.92;;;3.10;;
23782;SDS011;12071;50.850;4.446;2023-03-14T14:20:14;22.52;;;3.50;;
23782;SDS011;12071;50.850;4.446;2023-03-14T14:22:46;19.60;;;2.92;;
23782;SDS011;12071;50.850;4.446;2023-03-14T14:25:13;19.67;;;3.55;;
23782;SDS011;12071;50.850;4.446;2023-03-14T14:27:42;17.35;;;2.45;;
23782;SDS011;12071;50.850;4.446;2023-03-14T14:32:43;10.45;;;2.30;;
23782;SDS011;12071;50.850;4.446;2023-03-14T14:35:26;17.20;;;2.28;;
23782;SDS011;12071;50.850;4.446;2023-03-14T14:37:57;12.57;;;1.88;;
23782;SDS011;12071;50.850;4.446;2023-03-14T14:40:24;9.35;;;1.83;;
23782;SDS011;12071;50.850;4.446;2023-03-14T14:42:55;11.43;;;1.45;;
23782;SDS011;12071;50.850;4.446;2023-03-14T14:45:28;8.32;;;1.63;;
23782;SDS011;12071;50.850;4.446;2023-03-14T14:47:55;11.63;;;1.73;;
23782;SDS011;12071;50.850;4.446;2023-03-14T14:50:28;10.65;;;1.40;;
23782;SDS011;12071;50.850;4.446;2023-03-14T14:52:59;4.82;;;0.77;;
23782;SDS011;12071;50.850;4.446;2023-03-14T14:55:33;8.75;;;1.55;;
23782;SDS011;12071;50.850;4.446;2023-03-14T14:58:40;7.78;;;0.90;;
23782;SDS011;12071;50.850;4.446;2023-03-14T15:01:07;4.53;;;0.60;;
23782;SDS011;12071;50.850;4.446;2023-03-14T15:03:41;3.78;;;0.60;;
23782;SDS011;12071;50.850;4.446;2023-03-14T15:06:08;4.72;;;0.57;;
23782;SDS011;12071;50.850;4.446;2023-03-14T15:08:35;1.30;;;0.30;;
23782;SDS011;12071;50.850;4.446;2023-03-14T15:11:02;3.28;;;0.70;;
23782;SDS011;12071;50.850;4.446;2023-03-14T15:13:28;3.85;;;0.75;;
23782;SDS011;12071;50.850;4.446;2023-03-14T15:15:53;2.90;;;0.50;;
23782;SDS011;12071;50.850;4.446;2023-03-14T15:18:23;3.97;;;0.40;;
23782;SDS011;12071;50.850;4.446;2023-03-14T15:20:50;4.88;;;0.50;;
23782;SDS011;12071;50.850;4.446;2023-03-14T15:23:17;1.77;;;0.75;;
23782;SDS011;12071;50.850;4.446;2023-03-14T15:25:46;2.78;;;0.52;;
23782;SDS011;12071;50.850;4.446;2023-03-14T15:28:21;2.00;;;0.45;;
23782;SDS011;12071;50.850;4.446;2023-03-14T15:30:49;2.42;;;0.63;;
23782;SDS011;12071;50.850;4.446;2023-03-14T15:33:16;1.48;;;0.60;;
23782;SDS011;12071;50.850;4.446;2023-03-14T15:35:42;1.55;;;0.40;;
23782;SDS011;12071;50.850;4.446;2023-03-14T15:38:12;1.50;;;0.40;;
23782;SDS011;12071;50.850;4.446;2023-03-14T15:40:40;5.05;;;0.60;;
23782;SDS011;12071;50.850;4.446;2023-03-14T15:43:06;2.67;;;0.50;;
23782;SDS011;12071;50.850;4.446;2023-03-14T15:45:32;3.72;;;0.60;;
23782;SDS011;12071;50.850;4.446;2023-03-14T15:47:58;1.95;;;0.60;;
23782;SDS011;12071;50.850;4.446;2023-03-14T15:50:23;1.30;;;0.60;;
23782;SDS011;12071;50.850;4.446;2023-03-14T15:52:50;3.28;;;0.70;;
23782;SDS011;12071;50.850;4.446;2023-03-14T15:55:16;4.88;;;0.85;;
23782;SDS011;12071;50.850;4.446;2023-03-14T15:57:42;2.20;;;0.80;;
23782;SDS011;12071;50.850;4.446;2023-03-14T16:00:13;2.78;;;1.08;;
23782;SDS011;12071;50.850;4.446;2023-03-14T16:02:42;5.15;;;1.00;;
23782;SDS011;12071;50.850;4.446;2023-03-14T16:05:10;3.25;;;0.90;;